sensor_id;sensor_type;location;lat;lon;timestamp;P1;durP1;ratioP1;P2;durP2;ratioP2
31270;SDS011;17904;47.420;9.310;2023-02-01T00:01:18;18.60;;;10.10;;
31270;SDS011;17904;47.420;9.310;2023-02-01T00:06:12;16.77;;;9.57;;
31270;SDS011;17904;47.420;9.310;2023-02-01T00:11:06;14.32;;;8.60;;
31270;SDS011;17904;47.420;9.310;2023-02-01T00:13:35;19.00;;;9.50;;
31270;SDS011;17904;47.420;9.310;2023-02-01T00:16:22;19.67;;;9.48;;
31270;SDS011;17904;47.420;9.310;2023-02-01T00:18:51;14.40;;;8.75;;
31270;SDS011;17904;47.420;9.310;2023-02-01T00:21:24;15.20;;;9.75;;
31270;SDS011;17904;47.420;9.310;2023-02-01T00:23:51;18.58;;;9.32;;
31270;SDS011;17904;47.420;9.310;2023-02-01T00:28:57;12.77;;;7.72;;
31270;SDS011;17904;47.420;9.310;2023-02-01T00:33:54;19.08;;;9.55;;
31270;SDS011;17904;47.420;9.310;2023-02-01T00:38:47;15.20;;;7.90;;
31270;SDS011;17904;47.420;9.310;2023-02-01T00:46:09;12.88;;;7.65;;
31270;SDS011;17904;47.420;9.310;2023-02-01T00:48:37;15.38;;;8.80;;
31270;SDS011;17904;47.420;9.310;2023-02-01T00:51:05;14.32;;;8.30;;
31270;SDS011;17904;47.420;9.310;2023-02-01T00:53:34;14.95;;;8.20;;
31270;SDS011;17904;47.420;9.310;2023-02-01T00:56:01;11.77;;;8.20;;
31270;SDS011;17904;47.420;9.310;2023-02-01T00:58:29;16.35;;;8.02;;
31270;SDS011;17904;47.420;9.310;2023-02-01T01:03:44;15.38;;;7.93;;
31270;SDS011;17904;47.420;9.310;2023-02-01T01:06:14;14.38;;;7.88;;
31270;SDS011;17904;47.420;9.310;2023-02-01T01:08:42;11.80;;;7.45;;
31270;SDS011;17904;47.420;9.310;2023-02-01T01:11:11;13.52;;;7.75;;
31270;SDS011;17904;47.420;9.310;2023-02-01T01:13:40;14.80;;;8.77;;
31270;SDS011;17904;47.420;9.310;2023-02-01T01:16:08;14.98;;;7.30;;
31270;SDS011;17904;47.420;9.310;2023-02-01T01:18:35;12.80;;;7.00;;
31270;SDS011;17904;47.420;9.310;2023-02-01T01:21:06;14.77;;;7.95;;
31270;SDS011;17904;47.420;9.310;2023-02-01T01:23:35;14.93;;;8.13;;
31270;SDS011;17904;47.420;9.310;2023-02-01T01:26:09;11.45;;;7.30;;
31270;SDS011;17904;47.420;9.310;2023-02-01T01:28:39;18.30;;;9.18;;
31270;SDS011;17904;47.420;9.310;2023-02-01T01:31:10;13.00;;;8.38;;
31270;SDS011;17904;47.420;9.310;2023-02-01T01:33:38;14.48;;;9.07;;
31270;SDS011;17904;47.420;9.310;2023-02-01T01:36:06;13.27;;;7.32;;
31270;SDS011;17904;47.420;9.310;2023-02-01T01:38:40;19.60;;;9.63;;
31270;SDS011;17904;47.420;9.310;2023-02-01T01:41:08;13.30;;;8.75;;
31270;SDS011;17904;47.420;9.310;2023-02-01T01:43:57;19.00;;;10.10;;
31270;SDS011;17904;47.420;9.310;2023-02-01T01:46:26;15.15;;;9.60;;
31270;SDS011;17904;47.420;9.310;2023-02-01T01:51:36;18.08;;;9.85;;
31270;SDS011;17904;47.420;9.310;2023-02-01T01:54:11;14.45;;;8.57;;
31270;SDS011;17904;47.420;9.310;2023-02-01T01:56:43;14.63;;;9.07;;
31270;SDS011;17904;47.420;9.310;2023-02-01T01:59:17;12.05;;;8.32;;
31270;SDS011;17904;47.420;9.310;2023-02-01T02:01:44;18.33;;;9.20;;
31270;SDS011;17904;47.420;9.310;2023-02-01T02:04:12;16.60;;;10.38;;
31270;SDS011;17904;47.420;9.310;2023-02-01T02:06:47;22.95;;;9.52;;
31270;SDS011;17904;47.420;9.310;2023-02-01T02:09:51;15.63;;;9.35;;
31270;SDS011;17904;47.420;9.310;2023-02-01T02:12:26;17.77;;;8.75;;
31270;SDS011;17904;47.420;9.310;2023-02-01T02:14:54;15.25;;;8.55;;
31270;SDS011;17904;47.420;9.310;2023-02-01T02:23:03;24.80;;;9.18;;
31270;SDS011;17904;47.420;9.310;2023-02-01T02:28:42;14.75;;;8.30;;
31270;SDS011;17904;47.420;9.310;2023-02-01T02:31:45;12.93;;;7.65;;
31270;SDS011;17904;47.420;9.310;2023-02-01T02:34:50;17.45;;;9.98;;
31270;SDS011;17904;47.420;9.310;2023-02-01T02:40:27;11.88;;;7.95;;
31270;SDS011;17904;47.420;9.310;2023-02-01T02:46:18;29.13;;;12.95;;
31270;SDS011;17904;47.420;9.310;2023-02-01T02:49:17;14.07;;;8.23;;
31270;SDS011;17904;47.420;9.310;2023-02-01T02:51:53;16.95;;;8.45;;
31270;SDS011;17904;47.420;9.310;2023-02-01T02:54:45;14.85;;;8.05;;
31270;SDS011;17904;47.420;9.310;2023-02-01T02:57:18;17.42;;;9.73;;
31270;SDS011;17904;47.420;9.310;2023-02-01T03:00:11;17.75;;;10.05;;
31270;SDS011;17904;47.420;9.310;2023-02-01T03:03:00;21.98;;;9.63;;
31270;SDS011;17904;47.420;9.310;2023-02-01T03:05:47;17.50;;;8.82;;
31270;SDS011;17904;47.420;9.310;2023-02-01T03:08:30;23.20;;;9.90;;
31270;SDS011;17904;47.420;9.310;2023-02-01T03:10:58;17.38;;;8.73;;
31270;SDS011;17904;47.420;9.310;2023-02-01T03:18:56;18.02;;;7.85;;
31270;SDS011;17904;47.420;9.310;2023-02-01T03:21:51;16.00;;;7.72;;
31270;SDS011;17904;47.420;9.310;2023-02-01T03:24:25;18.30;;;8.43;;
31270;SDS011;17904;47.420;9.310;2023-02-01T03:27:05;13.40;;;7.80;;
31270;SDS011;17904;47.420;9.310;2023-02-01T03:29:46;11.70;;;7.47;;
31270;SDS011;17904;47.420;9.310;2023-02-01T03:32:17;14.02;;;6.47;;
31270;SDS011;17904;47.420;9.310;2023-02-01T03:34:44;14.40;;;7.47;;
31270;SDS011;17904;47.420;9.310;2023-02-01T03:37:12;12.38;;;6.50;;
31270;SDS011;17904;47.420;9.310;2023-02-01T03:39:47;12.10;;;7.40;;
31270;SDS011;17904;47.420;9.310;2023-02-01T03:42:21;11.07;;;6.32;;
31270;SDS011;17904;47.420;9.310;2023-02-01T03:47:58;10.77;;;6.18;;
31270;SDS011;17904;47.420;9.310;2023-02-01T03:50:27;11.15;;;6.22;;
31270;SDS011;17904;47.420;9.310;2023-02-01T03:55:36;12.73;;;7.78;;
31270;SDS011;17904;47.420;9.310;2023-02-01T03:58:09;10.75;;;6.93;;
31270;SDS011;17904;47.420;9.310;2023-02-01T04:00:39;11.45;;;6.60;;
31270;SDS011;17904;47.420;9.310;2023-02-01T04:03:10;12.88;;;6.45;;
31270;SDS011;17904;47.420;9.310;2023-02-01T04:05:37;10.85;;;6.10;;
31270;SDS011;17904;47.420;9.310;2023-02-01T04:08:06;9.73;;;5.97;;
31270;SDS011;17904;47.420;9.310;2023-02-01T04:12:59;13.73;;;6.95;;
31270;SDS011;17904;47.420;9.310;2023-02-01T04:17:52;11.85;;;5.28;;
31270;SDS011;17904;47.420;9.310;2023-02-01T04:20:19;8.15;;;5.50;;
31270;SDS011;17904;47.420;9.310;2023-02-01T04:22:47;10.18;;;6.10;;
31270;SDS011;17904;47.420;9.310;2023-02-01T04:27:40;13.02;;;6.07;;
31270;SDS011;17904;47.420;9.310;2023-02-01T04:32:36;12.45;;;6.18;;
31270;SDS011;17904;47.420;9.310;2023-02-01T04:35:03;10.43;;;6.10;;
31270;SDS011;17904;47.420;9.310;2023-02-01T04:37:30;10.65;;;5.90;;
31270;SDS011;17904;47.420;9.310;2023-02-01T04:42:24;11.07;;;6.45;;
31270;SDS011;17904;47.420;9.310;2023-02-01T04:44:51;9.95;;;6.55;;
31270;SDS011;17904;47.420;9.310;2023-02-01T04:47:17;12.68;;;7.63;;
31270;SDS011;17904;47.420;9.310;2023-02-01T04:52:11;14.05;;;6.68;;
31270;SDS011;17904;47.420;9.310;2023-02-01T04:54:37;11.25;;;6.18;;
31270;SDS011;17904;47.420;9.310;2023-02-01T04:57:04;12.98;;;6.63;;
31270;SDS011;17904;47.420;9.310;2023-02-01T05:01:57;12.18;;;6.82;;
31270;SDS011;17904;47.420;9.310;2023-02-01T05:06:51;9.02;;;5.60;;
31270;SDS011;17904;47.420;9.310;2023-02-01T05:11:44;11.25;;;6.07;;
31270;SDS011;17904;47.420;9.310;2023-02-01T05:14:29;10.77;;;6.05;;
31270;SDS011;17904;47.420;9.310;2023-02-01T05:16:56;13.13;;;7.35;;
31270;SDS011;17904;47.420;9.310;2023-02-01T05:21:49;11.80;;;6.22;;
31270;SDS011;17904;47.420;9.310;2023-02-01T05:26:47;10.65;;;6.75;;
31270;SDS011;17904;47.420;9.310;2023-02-01T05:29:14;11.43;;;6.45;;
31270;SDS011;17904;47.420;9.310;2023-02-01T05:31:43;13.85;;;7.43;;
31270;SDS011;17904;47.420;9.310;2023-02-01T05:34:11;12.80;;;7.82;;
31270;SDS011;17904;47.420;9.310;2023-02-01T05:36:38;12.95;;;6.47;;
31270;SDS011;17904;47.420;9.310;2023-02-01T05:39:05;13.35;;;7.43;;
31270;SDS011;17904;47.420;9.310;2023-02-01T05:43:59;12.32;;;6.47;;
31270;SDS011;17904;47.420;9.310;2023-02-01T05:48:52;11.32;;;6.03;;
31270;SDS011;17904;47.420;9.310;2023-02-01T05:53:45;9.43;;;6.03;;
31270;SDS011;17904;47.420;9.310;2023-02-01T05:58:38;13.75;;;8.10;;
31270;SDS011;17904;47.420;9.310;2023-02-01T06:01:05;13.93;;;7.95;;
31270;SDS011;17904;47.420;9.310;2023-02-01T06:05:59;11.25;;;6.82;;
31270;SDS011;17904;47.420;9.310;2023-02-01T06:08:27;13.48;;;7.65;;
31270;SDS011;17904;47.420;9.310;2023-02-01T06:11:00;14.05;;;7.85;;
31270;SDS011;17904;47.420;9.310;2023-02-01T06:13:29;16.33;;;9.25;;
31270;SDS011;17904;47.420;9.310;2023-02-01T06:15:59;13.23;;;7.68;;
31270;SDS011;17904;47.420;9.310;2023-02-01T06:18:27;17.42;;;8.50;;
31270;SDS011;17904;47.420;9.310;2023-02-01T06:20:54;18.20;;;9.13;;
31270;SDS011;17904;47.420;9.310;2023-02-01T06:23:22;12.95;;;8.20;;
31270;SDS011;17904;47.420;9.310;2023-02-01T06:25:52;12.40;;;7.05;;
31270;SDS011;17904;47.420;9.310;2023-02-01T06:28:25;14.40;;;7.18;;
31270;SDS011;17904;47.420;9.310;2023-02-01T06:30:53;17.92;;;8.80;;
31270;SDS011;17904;47.420;9.310;2023-02-01T06:33:21;12.45;;;6.97;;
31270;SDS011;17904;47.420;9.310;2023-02-01T06:35:48;15.90;;;7.95;;
31270;SDS011;17904;47.420;9.310;2023-02-01T06:38:14;11.38;;;7.10;;
31270;SDS011;17904;47.420;9.310;2023-02-01T06:43:08;15.65;;;8.48;;
31270;SDS011;17904;47.420;9.310;2023-02-01T06:48:01;16.20;;;6.97;;
31270;SDS011;17904;47.420;9.310;2023-02-01T06:52:55;13.07;;;7.68;;
31270;SDS011;17904;47.420;9.310;2023-02-01T06:55:21;13.98;;;6.65;;
31270;SDS011;17904;47.420;9.310;2023-02-01T06:57:52;16.48;;;8.27;;
31270;SDS011;17904;47.420;9.310;2023-02-01T07:00:19;13.23;;;7.18;;
31270;SDS011;17904;47.420;9.310;2023-02-01T07:02:47;16.30;;;8.38;;
31270;SDS011;17904;47.420;9.310;2023-02-01T07:05:14;14.65;;;7.43;;
31270;SDS011;17904;47.420;9.310;2023-02-01T07:07:42;11.88;;;6.93;;
31270;SDS011;17904;47.420;9.310;2023-02-01T07:10:09;14.10;;;6.90;;
31270;SDS011;17904;47.420;9.310;2023-02-01T07:12:36;11.32;;;6.90;;
31270;SDS011;17904;47.420;9.310;2023-02-01T07:15:03;13.27;;;7.05;;
31270;SDS011;17904;47.420;9.310;2023-02-01T07:17:30;11.02;;;7.47;;
31270;SDS011;17904;47.420;9.310;2023-02-01T07:19:57;10.68;;;6.68;;
31270;SDS011;17904;47.420;9.310;2023-02-01T07:22:27;12.85;;;7.40;;
31270;SDS011;17904;47.420;9.310;2023-02-01T07:24:54;14.55;;;6.85;;
31270;SDS011;17904;47.420;9.310;2023-02-01T07:27:21;11.18;;;6.80;;
31270;SDS011;17904;47.420;9.310;2023-02-01T07:29:51;10.88;;;6.32;;
31270;SDS011;17904;47.420;9.310;2023-02-01T07:32:18;13.30;;;6.78;;
31270;SDS011;17904;47.420;9.310;2023-02-01T07:37:11;14.50;;;7.32;;
31270;SDS011;17904;47.420;9.310;2023-02-01T07:42:05;11.70;;;5.88;;
31270;SDS011;17904;47.420;9.310;2023-02-01T07:44:32;12.43;;;6.53;;
31270;SDS011;17904;47.420;9.310;2023-02-01T07:46:59;10.50;;;6.25;;
31270;SDS011;17904;47.420;9.310;2023-02-01T07:49:26;11.98;;;6.82;;
31270;SDS011;17904;47.420;9.310;2023-02-01T07:54:19;10.90;;;6.60;;
31270;SDS011;17904;47.420;9.310;2023-02-01T07:59:12;11.25;;;5.78;;
31270;SDS011;17904;47.420;9.310;2023-02-01T08:04:06;10.23;;;5.80;;
31270;SDS011;17904;47.420;9.310;2023-02-01T08:06:35;9.38;;;5.72;;
31270;SDS011;17904;47.420;9.310;2023-02-01T08:09:03;9.48;;;6.00;;
31270;SDS011;17904;47.420;9.310;2023-02-01T08:11:30;8.48;;;5.20;;
31270;SDS011;17904;47.420;9.310;2023-02-01T08:13:57;8.68;;;5.10;;
31270;SDS011;17904;47.420;9.310;2023-02-01T08:16:24;8.18;;;5.03;;
31270;SDS011;17904;47.420;9.310;2023-02-01T08:18:52;10.73;;;6.15;;
31270;SDS011;17904;47.420;9.310;2023-02-01T08:21:21;10.98;;;5.57;;
31270;SDS011;17904;47.420;9.310;2023-02-01T08:23:52;8.98;;;4.88;;
31270;SDS011;17904;47.420;9.310;2023-02-01T08:28:54;11.20;;;4.63;;
31270;SDS011;17904;47.420;9.310;2023-02-01T08:31:23;7.32;;;4.75;;
31270;SDS011;17904;47.420;9.310;2023-02-01T08:33:53;7.15;;;4.85;;
31270;SDS011;17904;47.420;9.310;2023-02-01T08:36:22;7.90;;;4.80;;
31270;SDS011;17904;47.420;9.310;2023-02-01T08:38:49;8.98;;;4.38;;
31270;SDS011;17904;47.420;9.310;2023-02-01T08:41:18;7.55;;;4.55;;
31270;SDS011;17904;47.420;9.310;2023-02-01T08:43:46;7.55;;;4.20;;
31270;SDS011;17904;47.420;9.310;2023-02-01T08:46:14;6.88;;;3.63;;
31270;SDS011;17904;47.420;9.310;2023-02-01T08:48:42;10.60;;;4.40;;
31270;SDS011;17904;47.420;9.310;2023-02-01T08:51:09;6.03;;;3.88;;
31270;SDS011;17904;47.420;9.310;2023-02-01T08:53:38;8.35;;;4.03;;
31270;SDS011;17904;47.420;9.310;2023-02-01T08:56:07;7.78;;;4.78;;
31270;SDS011;17904;47.420;9.310;2023-02-01T08:58:36;7.90;;;4.13;;
31270;SDS011;17904;47.420;9.310;2023-02-01T09:01:04;14.88;;;4.72;;
31270;SDS011;17904;47.420;9.310;2023-02-01T09:03:32;12.13;;;5.40;;
31270;SDS011;17904;47.420;9.310;2023-02-01T09:06:01;8.25;;;5.07;;
31270;SDS011;17904;47.420;9.310;2023-02-01T09:08:30;6.93;;;4.70;;
31270;SDS011;17904;47.420;9.310;2023-02-01T09:11:00;8.70;;;4.70;;
31270;SDS011;17904;47.420;9.310;2023-02-01T09:13:29;12.95;;;4.35;;
31270;SDS011;17904;47.420;9.310;2023-02-01T09:15:56;10.82;;;4.25;;
31270;SDS011;17904;47.420;9.310;2023-02-01T09:18:24;8.90;;;5.53;;
31270;SDS011;17904;47.420;9.310;2023-02-01T09:20:52;7.50;;;3.60;;
31270;SDS011;17904;47.420;9.310;2023-02-01T09:25:46;6.88;;;3.92;;
31270;SDS011;17904;47.420;9.310;2023-02-01T09:28:16;6.35;;;3.50;;
31270;SDS011;17904;47.420;9.310;2023-02-01T09:30:44;7.85;;;4.53;;
31270;SDS011;17904;47.420;9.310;2023-02-01T09:33:11;7.28;;;4.57;;
31270;SDS011;17904;47.420;9.310;2023-02-01T09:38:04;7.68;;;3.92;;
31270;SDS011;17904;47.420;9.310;2023-02-01T09:40:33;7.25;;;3.45;;
31270;SDS011;17904;47.420;9.310;2023-02-01T09:48:15;4.68;;;3.47;;
31270;SDS011;17904;47.420;9.310;2023-02-01T09:50:55;6.13;;;3.95;;
31270;SDS011;17904;47.420;9.310;2023-02-01T09:53:34;12.45;;;4.10;;
31270;SDS011;17904;47.420;9.310;2023-02-01T09:56:05;6.95;;;3.85;;
31270;SDS011;17904;47.420;9.310;2023-02-01T09:58:44;5.72;;;4.00;;
31270;SDS011;17904;47.420;9.310;2023-02-01T10:01:18;8.18;;;4.15;;
31270;SDS011;17904;47.420;9.310;2023-02-01T10:03:48;7.88;;;3.58;;
31270;SDS011;17904;47.420;9.310;2023-02-01T10:17:08;4.53;;;3.60;;
31270;SDS011;17904;47.420;9.310;2023-02-01T10:25:53;8.25;;;3.55;;
31270;SDS011;17904;47.420;9.310;2023-02-01T10:28:22;7.35;;;3.78;;
31270;SDS011;17904;47.420;9.310;2023-02-01T10:30:56;8.98;;;3.70;;
31270;SDS011;17904;47.420;9.310;2023-02-01T10:38:52;11.98;;;3.03;;
31270;SDS011;17904;47.420;9.310;2023-02-01T10:46:22;4.38;;;2.72;;
31270;SDS011;17904;47.420;9.310;2023-02-01T10:48:50;3.97;;;2.58;;
31270;SDS011;17904;47.420;9.310;2023-02-01T10:54:19;3.78;;;2.80;;
31270;SDS011;17904;47.420;9.310;2023-02-01T10:56:48;8.13;;;3.65;;
31270;SDS011;17904;47.420;9.310;2023-02-01T10:59:19;2.40;;;2.05;;
31270;SDS011;17904;47.420;9.310;2023-02-01T11:01:51;3.85;;;2.28;;
31270;SDS011;17904;47.420;9.310;2023-02-01T11:04:28;3.33;;;1.98;;
31270;SDS011;17904;47.420;9.310;2023-02-01T11:09:40;3.83;;;2.42;;
31270;SDS011;17904;47.420;9.310;2023-02-01T11:14:56;7.03;;;2.08;;
31270;SDS011;17904;47.420;9.310;2023-02-01T11:17:43;2.78;;;2.05;;
31270;SDS011;17904;47.420;9.310;2023-02-01T11:20:18;8.35;;;2.00;;
31270;SDS011;17904;47.420;9.310;2023-02-01T11:22:54;2.90;;;1.95;;
31270;SDS011;17904;47.420;9.310;2023-02-01T11:25:22;2.95;;;1.80;;
31270;SDS011;17904;47.420;9.310;2023-02-01T11:27:51;3.53;;;1.90;;
31270;SDS011;17904;47.420;9.310;2023-02-01T11:30:34;7.78;;;2.10;;
31270;SDS011;17904;47.420;9.310;2023-02-01T11:33:07;4.85;;;1.80;;
31270;SDS011;17904;47.420;9.310;2023-02-01T11:35:39;3.47;;;1.95;;
31270;SDS011;17904;47.420;9.310;2023-02-01T11:38:15;2.45;;;1.75;;
31270;SDS011;17904;47.420;9.310;2023-02-01T11:40:47;3.20;;;1.75;;
31270;SDS011;17904;47.420;9.310;2023-02-01T11:46:16;7.05;;;2.03;;
31270;SDS011;17904;47.420;9.310;2023-02-01T11:48:48;1.95;;;1.70;;
31270;SDS011;17904;47.420;9.310;2023-02-01T11:56:59;4.85;;;1.77;;
31270;SDS011;17904;47.420;9.310;2023-02-01T12:05:01;4.78;;;1.90;;
31270;SDS011;17904;47.420;9.310;2023-02-01T12:16:15;4.28;;;1.85;;
31270;SDS011;17904;47.420;9.310;2023-02-01T12:27:42;5.78;;;2.70;;
31270;SDS011;17904;47.420;9.310;2023-02-01T12:30:34;2.45;;;1.90;;
31270;SDS011;17904;47.420;9.310;2023-02-01T12:36:07;3.97;;;1.88;;
31270;SDS011;17904;47.420;9.310;2023-02-01T12:38:43;2.33;;;1.85;;
31270;SDS011;17904;47.420;9.310;2023-02-01T12:47:11;7.75;;;2.63;;
31270;SDS011;17904;47.420;9.310;2023-02-01T12:49:47;3.78;;;2.28;;
31270;SDS011;17904;47.420;9.310;2023-02-01T12:52:21;2.97;;;2.45;;
31270;SDS011;17904;47.420;9.310;2023-02-01T12:55:09;4.88;;;2.30;;
31270;SDS011;17904;47.420;9.310;2023-02-01T12:57:46;3.40;;;2.17;;
31270;SDS011;17904;47.420;9.310;2023-02-01T13:00:27;4.63;;;2.35;;
31270;SDS011;17904;47.420;9.310;2023-02-01T13:03:26;4.68;;;2.08;;
31270;SDS011;17904;47.420;9.310;2023-02-01T13:06:08;4.30;;;2.35;;
31270;SDS011;17904;47.420;9.310;2023-02-01T13:11:25;4.50;;;2.25;;
31270;SDS011;17904;47.420;9.310;2023-02-01T13:17:14;3.42;;;2.00;;
31270;SDS011;17904;47.420;9.310;2023-02-01T13:19:50;6.43;;;2.60;;
31270;SDS011;17904;47.420;9.310;2023-02-01T13:22:34;7.60;;;2.80;;
31270;SDS011;17904;47.420;9.310;2023-02-01T13:27:36;11.70;;;2.38;;
31270;SDS011;17904;47.420;9.310;2023-02-01T13:43:58;8.10;;;3.20;;
31270;SDS011;17904;47.420;9.310;2023-02-01T13:46:29;4.25;;;2.38;;
31270;SDS011;17904;47.420;9.310;2023-02-01T13:48:59;3.75;;;2.58;;
31270;SDS011;17904;47.420;9.310;2023-02-01T13:51:32;4.65;;;2.67;;
31270;SDS011;17904;47.420;9.310;2023-02-01T13:54:28;9.05;;;3.72;;
31270;SDS011;17904;47.420;9.310;2023-02-01T13:56:55;5.50;;;2.80;;
31270;SDS011;17904;47.420;9.310;2023-02-01T14:00:22;7.72;;;2.92;;
31270;SDS011;17904;47.420;9.310;2023-02-01T14:05:06;6.28;;;2.95;;
31270;SDS011;17904;47.420;9.310;2023-02-01T14:13:38;3.15;;;2.47;;
31270;SDS011;17904;47.420;9.310;2023-02-01T14:16:13;4.43;;;2.72;;
31270;SDS011;17904;47.420;9.310;2023-02-01T14:23:56;4.82;;;3.42;;
31270;SDS011;17904;47.420;9.310;2023-02-01T14:26:45;4.03;;;2.63;;
31270;SDS011;17904;47.420;9.310;2023-02-01T14:32:04;3.85;;;2.00;;
31270;SDS011;17904;47.420;9.310;2023-02-01T14:34:53;5.70;;;2.42;;
31270;SDS011;17904;47.420;9.310;2023-02-01T14:37:24;4.32;;;2.20;;
31270;SDS011;17904;47.420;9.310;2023-02-01T14:39:56;4.07;;;2.15;;
31270;SDS011;17904;47.420;9.310;2023-02-01T14:42:39;5.20;;;2.30;;
31270;SDS011;17904;47.420;9.310;2023-02-01T14:50:41;3.25;;;2.20;;
31270;SDS011;17904;47.420;9.310;2023-02-01T14:55:41;7.05;;;2.88;;
31270;SDS011;17904;47.420;9.310;2023-02-01T15:11:59;7.30;;;2.60;;
31270;SDS011;17904;47.420;9.310;2023-02-01T15:14:42;9.00;;;3.22;;
31270;SDS011;17904;47.420;9.310;2023-02-01T15:17:20;8.82;;;3.28;;
31270;SDS011;17904;47.420;9.310;2023-02-01T15:19:53;6.25;;;3.50;;
31270;SDS011;17904;47.420;9.310;2023-02-01T15:22:25;10.77;;;3.42;;
31270;SDS011;17904;47.420;9.310;2023-02-01T15:24:54;15.75;;;3.35;;
31270;SDS011;17904;47.420;9.310;2023-02-01T15:27:25;6.68;;;3.08;;
31270;SDS011;17904;47.420;9.310;2023-02-01T15:29:53;9.75;;;3.05;;
31270;SDS011;17904;47.420;9.310;2023-02-01T15:35:30;9.05;;;3.25;;
31270;SDS011;17904;47.420;9.310;2023-02-01T15:41:02;9.45;;;2.47;;
31270;SDS011;17904;47.420;9.310;2023-02-01T15:43:31;8.57;;;3.25;;
31270;SDS011;17904;47.420;9.310;2023-02-01T15:46:10;5.28;;;2.90;;
31270;SDS011;17904;47.420;9.310;2023-02-01T15:48:46;9.15;;;3.03;;
31270;SDS011;17904;47.420;9.310;2023-02-01T15:51:20;3.80;;;2.20;;
31270;SDS011;17904;47.420;9.310;2023-02-01T15:53:55;8.35;;;2.65;;
31270;SDS011;17904;47.420;9.310;2023-02-01T15:56:29;8.30;;;4.40;;
31270;SDS011;17904;47.420;9.310;2023-02-01T15:59:02;6.40;;;2.67;;
31270;SDS011;17904;47.420;9.310;2023-02-01T16:01:36;9.52;;;2.42;;
31270;SDS011;17904;47.420;9.310;2023-02-01T16:07:20;7.20;;;2.53;;
31270;SDS011;17904;47.420;9.310;2023-02-01T16:09:52;8.02;;;2.63;;
31270;SDS011;17904;47.420;9.310;2023-02-01T16:14:50;5.97;;;2.40;;
31270;SDS011;17904;47.420;9.310;2023-02-01T16:17:17;5.60;;;2.10;;
31270;SDS011;17904;47.420;9.310;2023-02-01T16:22:11;9.32;;;2.40;;
31270;SDS011;17904;47.420;9.310;2023-02-01T16:27:04;6.22;;;2.60;;
31270;SDS011;17904;47.420;9.310;2023-02-01T16:29:33;11.68;;;2.42;;
31270;SDS011;17904;47.420;9.310;2023-02-01T16:34:26;11.48;;;3.58;;
31270;SDS011;17904;47.420;9.310;2023-02-01T16:36:53;7.80;;;2.30;;
31270;SDS011;17904;47.420;9.310;2023-02-01T16:39:23;15.55;;;3.25;;
31270;SDS011;17904;47.420;9.310;2023-02-01T16:41:50;15.80;;;2.78;;
31270;SDS011;17904;47.420;9.310;2023-02-01T16:46:45;20.10;;;4.38;;
31270;SDS011;17904;47.420;9.310;2023-02-01T16:49:21;8.82;;;3.67;;
31270;SDS011;17904;47.420;9.310;2023-02-01T16:51:50;13.27;;;3.22;;
31270;SDS011;17904;47.420;9.310;2023-02-01T16:54:21;21.80;;;4.68;;
31270;SDS011;17904;47.420;9.310;2023-02-01T16:56:48;9.38;;;3.15;;
31270;SDS011;17904;47.420;9.310;2023-02-01T16:59:15;14.95;;;2.95;;
31270;SDS011;17904;47.420;9.310;2023-02-01T17:04:09;5.80;;;2.25;;
31270;SDS011;17904;47.420;9.310;2023-02-01T17:06:36;10.98;;;2.88;;
31270;SDS011;17904;47.420;9.310;2023-02-01T17:09:04;6.78;;;2.58;;
31270;SDS011;17904;47.420;9.310;2023-02-01T17:11:32;10.50;;;3.45;;
31270;SDS011;17904;47.420;9.310;2023-02-01T17:16:40;13.77;;;3.25;;
31270;SDS011;17904;47.420;9.310;2023-02-01T17:19:10;11.90;;;2.78;;
31270;SDS011;17904;47.420;9.310;2023-02-01T17:21:47;9.23;;;3.28;;
31270;SDS011;17904;47.420;9.310;2023-02-01T17:24:21;15.73;;;5.07;;
31270;SDS011;17904;47.420;9.310;2023-02-01T17:26:52;9.77;;;2.60;;
31270;SDS011;17904;47.420;9.310;2023-02-01T17:29:19;8.75;;;3.22;;
31270;SDS011;17904;47.420;9.310;2023-02-01T17:34:15;9.98;;;2.83;;
31270;SDS011;17904;47.420;9.310;2023-02-01T17:36:42;19.50;;;3.22;;
31270;SDS011;17904;47.420;9.310;2023-02-01T17:39:09;9.13;;;3.83;;
31270;SDS011;17904;47.420;9.310;2023-02-01T17:41:36;10.38;;;2.88;;
31270;SDS011;17904;47.420;9.310;2023-02-01T17:46:30;5.40;;;2.13;;
31270;SDS011;17904;47.420;9.310;2023-02-01T17:48:57;13.80;;;4.10;;
31270;SDS011;17904;47.420;9.310;2023-02-01T17:51:25;11.95;;;2.65;;
31270;SDS011;17904;47.420;9.310;2023-02-01T17:53:53;7.25;;;2.47;;
31270;SDS011;17904;47.420;9.310;2023-02-01T17:58:48;11.68;;;3.25;;
31270;SDS011;17904;47.420;9.310;2023-02-01T18:01:22;17.05;;;5.00;;
31270;SDS011;17904;47.420;9.310;2023-02-01T18:03:50;10.98;;;2.72;;
31270;SDS011;17904;47.420;9.310;2023-02-01T18:06:21;7.82;;;2.42;;
31270;SDS011;17904;47.420;9.310;2023-02-01T18:08:51;15.27;;;2.83;;
31270;SDS011;17904;47.420;9.310;2023-02-01T18:11:20;8.75;;;3.33;;
31270;SDS011;17904;47.420;9.310;2023-02-01T18:13:48;13.25;;;2.78;;
31270;SDS011;17904;47.420;9.310;2023-02-01T18:18:51;13.32;;;2.60;;
31270;SDS011;17904;47.420;9.310;2023-02-01T18:21:18;13.73;;;3.05;;
31270;SDS011;17904;47.420;9.310;2023-02-01T18:23:48;12.57;;;3.28;;
31270;SDS011;17904;47.420;9.310;2023-02-01T18:26:15;6.90;;;3.47;;
31270;SDS011;17904;47.420;9.310;2023-02-01T18:28:43;19.35;;;4.60;;
31270;SDS011;17904;47.420;9.310;2023-02-01T18:33:49;5.70;;;2.13;;
31270;SDS011;17904;47.420;9.310;2023-02-01T18:36:16;12.65;;;2.55;;
31270;SDS011;17904;47.420;9.310;2023-02-01T18:38:44;9.98;;;2.70;;
31270;SDS011;17904;47.420;9.310;2023-02-01T18:41:15;9.90;;;2.72;;
31270;SDS011;17904;47.420;9.310;2023-02-01T18:43:43;7.95;;;2.35;;
31270;SDS011;17904;47.420;9.310;2023-02-01T18:48:37;11.07;;;2.40;;
31270;SDS011;17904;47.420;9.310;2023-02-01T18:51:04;12.02;;;2.53;;
31270;SDS011;17904;47.420;9.310;2023-02-01T18:53:32;12.55;;;3.25;;
31270;SDS011;17904;47.420;9.310;2023-02-01T18:55:58;7.75;;;2.28;;
31270;SDS011;17904;47.420;9.310;2023-02-01T18:58:26;6.45;;;2.65;;
31270;SDS011;17904;47.420;9.310;2023-02-01T19:00:53;7.43;;;3.20;;
31270;SDS011;17904;47.420;9.310;2023-02-01T19:03:21;11.50;;;3.03;;
31270;SDS011;17904;47.420;9.310;2023-02-01T19:05:55;12.98;;;3.03;;
31270;SDS011;17904;47.420;9.310;2023-02-01T19:08:23;3.25;;;1.85;;
31270;SDS011;17904;47.420;9.310;2023-02-01T19:10:51;7.28;;;2.25;;
31270;SDS011;17904;47.420;9.310;2023-02-01T19:13:18;15.10;;;2.75;;
31270;SDS011;17904;47.420;9.310;2023-02-01T19:15:48;11.05;;;2.70;;
31270;SDS011;17904;47.420;9.310;2023-02-01T19:18:15;10.77;;;3.25;;
31270;SDS011;17904;47.420;9.310;2023-02-01T19:20:46;11.93;;;3.33;;
31270;SDS011;17904;47.420;9.310;2023-02-01T19:23:16;14.65;;;3.78;;
31270;SDS011;17904;47.420;9.310;2023-02-01T19:25:44;9.63;;;2.45;;
31270;SDS011;17904;47.420;9.310;2023-02-01T19:28:12;11.73;;;2.80;;
31270;SDS011;17904;47.420;9.310;2023-02-01T19:30:40;7.68;;;2.50;;
31270;SDS011;17904;47.420;9.310;2023-02-01T19:33:07;14.60;;;2.05;;
31270;SDS011;17904;47.420;9.310;2023-02-01T19:38:01;4.07;;;2.03;;
31270;SDS011;17904;47.420;9.310;2023-02-01T19:42:54;9.13;;;3.20;;
31270;SDS011;17904;47.420;9.310;2023-02-01T19:45:21;6.72;;;2.17;;
31270;SDS011;17904;47.420;9.310;2023-02-01T19:47:49;10.18;;;3.42;;
31270;SDS011;17904;47.420;9.310;2023-02-01T19:52:44;11.90;;;3.28;;
31270;SDS011;17904;47.420;9.310;2023-02-01T19:55:12;6.22;;;2.47;;
31270;SDS011;17904;47.420;9.310;2023-02-01T19:57:39;12.65;;;2.88;;
31270;SDS011;17904;47.420;9.310;2023-02-01T20:02:33;16.17;;;3.15;;
31270;SDS011;17904;47.420;9.310;2023-02-01T20:07:26;17.10;;;5.05;;
31270;SDS011;17904;47.420;9.310;2023-02-01T20:09:53;8.27;;;2.53;;
31270;SDS011;17904;47.420;9.310;2023-02-01T20:14:46;10.43;;;2.67;;
31270;SDS011;17904;47.420;9.310;2023-02-01T20:19:40;6.57;;;2.35;;